sensor_id;sensor_type;location;lat;lon;timestamp;temperature;humidity
30648;DHT22;17683;53.360;9.736;2023-02-21T00:01:50;9.40;99.90
30648;DHT22;17683;53.360;9.736;2023-02-21T00:04:35;9.40;99.90
30648;DHT22;17683;53.360;9.736;2023-02-21T00:07:20;9.40;99.90
30648;DHT22;17683;53.360;9.736;2023-02-21T00:10:04;9.40;99.90
30648;DHT22;17683;53.360;9.736;2023-02-21T00:12:49;9.40;99.90
30648;DHT22;17683;53.360;9.736;2023-02-21T00:15:33;9.40;99.90
30648;DHT22;17683;53.360;9.736;2023-02-21T00:18:17;9.40;99.90
30648;DHT22;17683;53.360;9.736;2023-02-21T00:21:02;9.40;99.90
30648;DHT22;17683;53.360;9.736;2023-02-21T00:23:46;9.40;99.90
30648;DHT22;17683;53.360;9.736;2023-02-21T00:26:31;9.40;99.90
30648;DHT22;17683;53.360;9.736;2023-02-21T00:29:15;9.40;99.90
30648;DHT22;17683;53.360;9.736;2023-02-21T00:32:00;9.40;99.90
30648;DHT22;17683;53.360;9.736;2023-02-21T00:34:44;9.40;99.90
30648;DHT22;17683;53.360;9.736;2023-02-21T00:37:28;9.40;99.90
30648;DHT22;17683;53.360;9.736;2023-02-21T00:40:14;9.40;99.90
30648;DHT22;17683;53.360;9.736;2023-02-21T00:42:58;9.40;99.90
30648;DHT22;17683;53.360;9.736;2023-02-21T00:45:43;9.40;99.90
30648;DHT22;17683;53.360;9.736;2023-02-21T00:48:27;9.40;99.90
30648;DHT22;17683;53.360;9.736;2023-02-21T00:51:11;9.40;99.90
30648;DHT22;17683;53.360;9.736;2023-02-21T00:53:56;9.40;99.90
30648;DHT22;17683;53.360;9.736;2023-02-21T00:56:40;9.40;99.90
30648;DHT22;17683;53.360;9.736;2023-02-21T00:59:25;9.40;99.90
30648;DHT22;17683;53.360;9.736;2023-02-21T01:02:09;9.40;99.90
30648;DHT22;17683;53.360;9.736;2023-02-21T01:04:54;9.40;99.90
30648;DHT22;17683;53.360;9.736;2023-02-21T01:07:38;9.40;99.90
30648;DHT22;17683;53.360;9.736;2023-02-21T01:10:23;9.40;99.90
30648;DHT22;17683;53.360;9.736;2023-02-21T01:13:08;9.40;99.90
30648;DHT22;17683;53.360;9.736;2023-02-21T01:15:52;9.40;99.90
30648;DHT22;17683;53.360;9.736;2023-02-21T01:18:36;9.40;99.90
30648;DHT22;17683;53.360;9.736;2023-02-21T01:21:20;9.40;99.90
30648;DHT22;17683;53.360;9.736;2023-02-21T01:24:06;9.30;99.90
30648;DHT22;17683;53.360;9.736;2023-02-21T01:26:52;9.30;99.90
30648;DHT22;17683;53.360;9.736;2023-02-21T01:29:36;9.40;99.90
30648;DHT22;17683;53.360;9.736;2023-02-21T01:32:20;9.40;99.90
30648;DHT22;17683;53.360;9.736;2023-02-21T01:35:05;9.40;99.90
30648;DHT22;17683;53.360;9.736;2023-02-21T01:37:49;9.30;99.90
30648;DHT22;17683;53.360;9.736;2023-02-21T01:40:37;9.40;99.90
30648;DHT22;17683;53.360;9.736;2023-02-21T01:43:23;9.40;99.90
30648;DHT22;17683;53.360;9.736;2023-02-21T01:46:19;9.40;99.90
30648;DHT22;17683;53.360;9.736;2023-02-21T01:49:12;9.40;99.90
30648;DHT22;17683;53.360;9.736;2023-02-21T01:51:59;9.40;99.90
30648;DHT22;17683;53.360;9.736;2023-02-21T01:54:47;9.40;99.90
30648;DHT22;17683;53.360;9.736;2023-02-21T01:57:33;9.30;99.90
30648;DHT22;17683;53.360;9.736;2023-02-21T02:00:18;9.30;99.90
30648;DHT22;17683;53.360;9.736;2023-02-21T02:03:08;9.30;99.90
30648;DHT22;17683;53.360;9.736;2023-02-21T02:06:03;9.30;99.90
30648;DHT22;17683;53.360;9.736;2023-02-21T02:08:47;9.30;99.90
30648;DHT22;17683;53.360;9.736;2023-02-21T02:14:33;9.30;99.90
30648;DHT22;17683;53.360;9.736;2023-02-21T02:20:44;9.30;99.90
30648;DHT22;17683;53.360;9.736;2023-02-21T02:32:08;9.30;99.90
30648;DHT22;17683;53.360;9.736;2023-02-21T02:38:24;9.30;99.90
30648;DHT22;17683;53.360;9.736;2023-02-21T02:40:34;9.30;99.90
30648;DHT22;17683;53.360;9.736;2023-02-21T02:43:20;9.30;99.90
30648;DHT22;17683;53.360;9.736;2023-02-21T02:45:55;9.30;99.90
30648;DHT22;17683;53.360;9.736;2023-02-21T02:48:25;9.30;99.90
30648;DHT22;17683;53.360;9.736;2023-02-21T02:50:52;9.30;99.90
30648;DHT22;17683;53.360;9.736;2023-02-21T02:53:23;9.20;99.90
30648;DHT22;17683;53.360;9.736;2023-02-21T02:56:01;9.20;99.90
30648;DHT22;17683;53.360;9.736;2023-02-21T02:58:33;9.30;99.90
30648;DHT22;17683;53.360;9.736;2023-02-21T03:09:30;9.30;99.90
30648;DHT22;17683;53.360;9.736;2023-02-21T03:12:09;9.30;99.90
30648;DHT22;17683;53.360;9.736;2023-02-21T03:17:22;9.20;99.90
30648;DHT22;17683;53.360;9.736;2023-02-21T03:19:51;9.30;99.90
30648;DHT22;17683;53.360;9.736;2023-02-21T03:22:22;9.20;99.90
30648;DHT22;17683;53.360;9.736;2023-02-21T03:24:49;9.30;99.90
30648;DHT22;17683;53.360;9.736;2023-02-21T03:27:17;9.20;99.90
30648;DHT22;17683;53.360;9.736;2023-02-21T03:29:45;9.20;99.90
30648;DHT22;17683;53.360;9.736;2023-02-21T03:32:25;9.20;99.90
30648;DHT22;17683;53.360;9.736;2023-02-21T03:34:52;9.20;99.90
30648;DHT22;17683;53.360;9.736;2023-02-21T03:39:45;9.20;99.90
30648;DHT22;17683;53.360;9.736;2023-02-21T03:42:11;9.20;99.90
30648;DHT22;17683;53.360;9.736;2023-02-21T03:44:37;9.20;99.90
30648;DHT22;17683;53.360;9.736;2023-02-21T03:47:02;9.20;99.90
30648;DHT22;17683;53.360;9.736;2023-02-21T03:49:28;9.20;99.90
30648;DHT22;17683;53.360;9.736;2023-02-21T03:51:54;9.20;99.90
30648;DHT22;17683;53.360;9.736;2023-02-21T03:54:19;9.20;99.90
30648;DHT22;17683;53.360;9.736;2023-02-21T03:56:45;9.20;99.90
30648;DHT22;17683;53.360;9.736;2023-02-21T03:59:11;9.20;99.90
30648;DHT22;17683;53.360;9.736;2023-02-21T04:01:37;9.20;99.90
30648;DHT22;17683;53.360;9.736;2023-02-21T04:04:02;9.20;99.90
30648;DHT22;17683;53.360;9.736;2023-02-21T04:06:28;9.10;99.90
30648;DHT22;17683;53.360;9.736;2023-02-21T04:08:54;9.10;99.90
30648;DHT22;17683;53.360;9.736;2023-02-21T04:11:20;9.10;99.90
30648;DHT22;17683;53.360;9.736;2023-02-21T04:13:46;9.10;99.90
30648;DHT22;17683;53.360;9.736;2023-02-21T04:16:12;9.10;99.90
30648;DHT22;17683;53.360;9.736;2023-02-21T04:18:38;9.10;99.90
30648;DHT22;17683;53.360;9.736;2023-02-21T04:21:03;9.10;99.90
30648;DHT22;17683;53.360;9.736;2023-02-21T04:23:29;9.10;99.90
30648;DHT22;17683;53.360;9.736;2023-02-21T04:25:55;9.10;99.90
30648;DHT22;17683;53.360;9.736;2023-02-21T04:28:21;9.10;99.90
30648;DHT22;17683;53.360;9.736;2023-02-21T04:30:46;9.10;99.90
30648;DHT22;17683;53.360;9.736;2023-02-21T04:33:12;9.10;99.90
30648;DHT22;17683;53.360;9.736;2023-02-21T04:35:38;9.10;99.90
30648;DHT22;17683;53.360;9.736;2023-02-21T04:38:03;9.10;99.90
30648;DHT22;17683;53.360;9.736;2023-02-21T04:40:29;9.10;99.90
30648;DHT22;17683;53.360;9.736;2023-02-21T04:42:55;9.10;99.90
30648;DHT22;17683;53.360;9.736;2023-02-21T04:45:21;9.10;99.90
30648;DHT22;17683;53.360;9.736;2023-02-21T04:47:46;9.10;99.90
30648;DHT22;17683;53.360;9.736;2023-02-21T04:50:12;9.00;99.90
30648;DHT22;17683;53.360;9.736;2023-02-21T04:52:38;9.10;99.90
30648;DHT22;17683;53.360;9.736;2023-02-21T04:55:06;9.00;99.90
30648;DHT22;17683;53.360;9.736;2023-02-21T04:57:32;9.00;99.90
30648;DHT22;17683;53.360;9.736;2023-02-21T04:59:59;9.10;99.90
30648;DHT22;17683;53.360;9.736;2023-02-21T05:02:26;9.00;99.90
30648;DHT22;17683;53.360;9.736;2023-02-21T05:04:51;9.00;99.90
30648;DHT22;17683;53.360;9.736;2023-02-21T05:07:17;9.00;99.90
30648;DHT22;17683;53.360;9.736;2023-02-21T05:09:43;9.00;99.90
30648;DHT22;17683;53.360;9.736;2023-02-21T05:12:09;9.00;99.90
30648;DHT22;17683;53.360;9.736;2023-02-21T05:14:37;9.00;99.90
30648;DHT22;17683;53.360;9.736;2023-02-21T05:17:07;9.00;99.90
30648;DHT22;17683;53.360;9.736;2023-02-21T05:19:32;9.00;99.90
30648;DHT22;17683;53.360;9.736;2023-02-21T05:22:00;9.00;99.90
30648;DHT22;17683;53.360;9.736;2023-02-21T05:24:29;9.00;99.90
30648;DHT22;17683;53.360;9.736;2023-02-21T05:26:55;9.00;99.90
30648;DHT22;17683;53.360;9.736;2023-02-21T05:29:21;9.00;99.90
30648;DHT22;17683;53.360;9.736;2023-02-21T05:31:47;9.00;99.90
30648;DHT22;17683;53.360;9.736;2023-02-21T05:34:14;9.00;99.90
30648;DHT22;17683;53.360;9.736;2023-02-21T05:36:40;9.00;99.90
30648;DHT22;17683;53.360;9.736;2023-02-21T05:39:07;8.90;99.90
30648;DHT22;17683;53.360;9.736;2023-02-21T05:41:33;8.90;99.90
30648;DHT22;17683;53.360;9.736;2023-02-21T05:44:01;8.90;99.90
30648;DHT22;17683;53.360;9.736;2023-02-21T05:46:31;8.90;99.90
30648;DHT22;17683;53.360;9.736;2023-02-21T05:48:58;8.90;99.90
30648;DHT22;17683;53.360;9.736;2023-02-21T05:51:24;8.90;99.90
30648;DHT22;17683;53.360;9.736;2023-02-21T05:53:51;8.90;99.90
30648;DHT22;17683;53.360;9.736;2023-02-21T05:56:19;8.90;99.90
30648;DHT22;17683;53.360;9.736;2023-02-21T05:58:45;8.90;99.90
30648;DHT22;17683;53.360;9.736;2023-02-21T06:01:12;8.90;99.90
30648;DHT22;17683;53.360;9.736;2023-02-21T06:03:38;8.90;99.90
30648;DHT22;17683;53.360;9.736;2023-02-21T06:06:04;8.90;99.90
30648;DHT22;17683;53.360;9.736;2023-02-21T06:08:30;8.90;99.90
30648;DHT22;17683;53.360;9.736;2023-02-21T06:10:59;8.90;99.90
30648;DHT22;17683;53.360;9.736;2023-02-21T06:13:24;8.90;99.90
30648;DHT22;17683;53.360;9.736;2023-02-21T06:15:50;8.90;99.90
30648;DHT22;17683;53.360;9.736;2023-02-21T06:18:16;8.90;99.90
30648;DHT22;17683;53.360;9.736;2023-02-21T06:20:43;8.90;99.90
30648;DHT22;17683;53.360;9.736;2023-02-21T06:23:08;8.90;99.90
30648;DHT22;17683;53.360;9.736;2023-02-21T06:25:34;8.90;99.90
30648;DHT22;17683;53.360;9.736;2023-02-21T06:28:00;8.90;99.90
30648;DHT22;17683;53.360;9.736;2023-02-21T06:30:26;8.90;99.90
30648;DHT22;17683;53.360;9.736;2023-02-21T06:32:51;8.90;99.90
30648;DHT22;17683;53.360;9.736;2023-02-21T06:35:17;8.90;99.90
30648;DHT22;17683;53.360;9.736;2023-02-21T06:37:43;8.90;99.90
30648;DHT22;17683;53.360;9.736;2023-02-21T06:40:09;8.90;99.90
30648;DHT22;17683;53.360;9.736;2023-02-21T06:42:35;8.90;99.90
30648;DHT22;17683;53.360;9.736;2023-02-21T06:45:01;8.80;99.90
30648;DHT22;17683;53.360;9.736;2023-02-21T06:47:29;8.80;99.90
30648;DHT22;17683;53.360;9.736;2023-02-21T06:49:54;8.90;99.90
30648;DHT22;17683;53.360;9.736;2023-02-21T06:52:20;8.80;99.90
30648;DHT22;17683;53.360;9.736;2023-02-21T06:54:51;8.90;99.90
30648;DHT22;17683;53.360;9.736;2023-02-21T06:57:17;8.90;99.90
30648;DHT22;17683;53.360;9.736;2023-02-21T06:59:43;8.90;99.90
30648;DHT22;17683;53.360;9.736;2023-02-21T07:02:15;8.90;99.90
30648;DHT22;17683;53.360;9.736;2023-02-21T07:04:43;8.80;99.90
30648;DHT22;17683;53.360;9.736;2023-02-21T07:07:09;8.80;99.90
30648;DHT22;17683;53.360;9.736;2023-02-21T07:09:34;8.90;99.90
30648;DHT22;17683;53.360;9.736;2023-02-21T07:12:00;8.90;99.90
30648;DHT22;17683;53.360;9.736;2023-02-21T07:14:27;8.90;99.90
30648;DHT22;17683;53.360;9.736;2023-02-21T07:16:53;8.90;99.90
30648;DHT22;17683;53.360;9.736;2023-02-21T07:19:19;8.90;99.90
30648;DHT22;17683;53.360;9.736;2023-02-21T07:21:44;8.90;99.90
30648;DHT22;17683;53.360;9.736;2023-02-21T07:24:10;8.90;99.90
30648;DHT22;17683;53.360;9.736;2023-02-21T07:26:37;8.90;99.90
30648;DHT22;17683;53.360;9.736;2023-02-21T07:29:03;8.90;99.90
30648;DHT22;17683;53.360;9.736;2023-02-21T07:31:29;8.90;99.90
30648;DHT22;17683;53.360;9.736;2023-02-21T07:33:55;8.90;99.90
30648;DHT22;17683;53.360;9.736;2023-02-21T07:36:20;8.90;99.90
30648;DHT22;17683;53.360;9.736;2023-02-21T07:38:50;8.90;99.90
30648;DHT22;17683;53.360;9.736;2023-02-21T07:41:16;8.90;99.90
30648;DHT22;17683;53.360;9.736;2023-02-21T07:43:42;8.90;99.90
30648;DHT22;17683;53.360;9.736;2023-02-21T07:46:15;8.90;99.90
30648;DHT22;17683;53.360;9.736;2023-02-21T07:48:42;8.90;99.90
30648;DHT22;17683;53.360;9.736;2023-02-21T07:51:08;9.00;99.90
30648;DHT22;17683;53.360;9.736;2023-02-21T07:53:34;9.00;99.90
30648;DHT22;17683;53.360;9.736;2023-02-21T07:56:01;9.00;99.90
30648;DHT22;17683;53.360;9.736;2023-02-21T07:58:26;9.00;99.90
30648;DHT22;17683;53.360;9.736;2023-02-21T08:00:52;9.00;99.90
30648;DHT22;17683;53.360;9.736;2023-02-21T08:03:20;9.00;99.90
30648;DHT22;17683;53.360;9.736;2023-02-21T08:05:46;9.00;99.90
30648;DHT22;17683;53.360;9.736;2023-02-21T08:08:13;9.00;99.90
30648;DHT22;17683;53.360;9.736;2023-02-21T08:10:39;9.00;99.90
30648;DHT22;17683;53.360;9.736;2023-02-21T08:13:05;9.00;99.90
30648;DHT22;17683;53.360;9.736;2023-02-21T08:15:30;9.10;99.90
30648;DHT22;17683;53.360;9.736;2023-02-21T08:17:56;9.10;99.90
30648;DHT22;17683;53.360;9.736;2023-02-21T08:20:22;9.10;99.90
30648;DHT22;17683;53.360;9.736;2023-02-21T08:22:48;9.00;99.90
30648;DHT22;17683;53.360;9.736;2023-02-21T08:25:14;9.00;99.90
30648;DHT22;17683;53.360;9.736;2023-02-21T08:27:41;9.00;99.90
30648;DHT22;17683;53.360;9.736;2023-02-21T08:30:09;9.10;99.90
30648;DHT22;17683;53.360;9.736;2023-02-21T08:32:36;9.10;99.90
30648;DHT22;17683;53.360;9.736;2023-02-21T08:35:02;9.10;99.90
30648;DHT22;17683;53.360;9.736;2023-02-21T08:37:30;9.10;99.90
30648;DHT22;17683;53.360;9.736;2023-02-21T08:39:58;9.10;99.90
30648;DHT22;17683;53.360;9.736;2023-02-21T08:42:24;9.10;99.90
30648;DHT22;17683;53.360;9.736;2023-02-21T08:44:50;9.10;99.90
30648;DHT22;17683;53.360;9.736;2023-02-21T08:47:16;9.10;99.90
30648;DHT22;17683;53.360;9.736;2023-02-21T08:49:46;9.10;99.90
30648;DHT22;17683;53.360;9.736;2023-02-21T08:52:14;9.10;99.90
30648;DHT22;17683;53.360;9.736;2023-02-21T08:54:43;9.10;99.90
30648;DHT22;17683;53.360;9.736;2023-02-21T08:57:10;9.10;99.90
30648;DHT22;17683;53.360;9.736;2023-02-21T08:59:39;9.10;99.90
30648;DHT22;17683;53.360;9.736;2023-02-21T09:02:14;9.20;99.90
30648;DHT22;17683;53.360;9.736;2023-02-21T09:04:40;9.20;99.90
30648;DHT22;17683;53.360;9.736;2023-02-21T09:07:06;9.20;99.90
30648;DHT22;17683;53.360;9.736;2023-02-21T09:09:32;9.20;99.90
30648;DHT22;17683;53.360;9.736;2023-02-21T09:11:57;9.20;99.90
30648;DHT22;17683;53.360;9.736;2023-02-21T09:14:23;9.30;99.90
30648;DHT22;17683;53.360;9.736;2023-02-21T09:16:49;9.20;99.90
30648;DHT22;17683;53.360;9.736;2023-02-21T09:19:14;9.20;99.90
30648;DHT22;17683;53.360;9.736;2023-02-21T09:21:50;9.30;99.90
30648;DHT22;17683;53.360;9.736;2023-02-21T09:24:20;9.30;99.90
30648;DHT22;17683;53.360;9.736;2023-02-21T09:26:51;9.30;99.90
30648;DHT22;17683;53.360;9.736;2023-02-21T09:29:20;9.30;99.90
30648;DHT22;17683;53.360;9.736;2023-02-21T09:31:47;9.30;99.90
30648;DHT22;17683;53.360;9.736;2023-02-21T09:34:13;9.30;99.90
30648;DHT22;17683;53.360;9.736;2023-02-21T09:36:40;9.30;99.90
30648;DHT22;17683;53.360;9.736;2023-02-21T09:39:06;9.30;99.90
30648;DHT22;17683;53.360;9.736;2023-02-21T09:41:33;9.30;99.90
30648;DHT22;17683;53.360;9.736;2023-02-21T09:44:00;9.30;99.90
30648;DHT22;17683;53.360;9.736;2023-02-21T09:46:41;9.30;99.90
30648;DHT22;17683;53.360;9.736;2023-02-21T09:49:26;9.20;99.90
30648;DHT22;17683;53.360;9.736;2023-02-21T09:51:54;9.20;99.90
30648;DHT22;17683;53.360;9.736;2023-02-21T09:54:55;9.20;99.90
30648;DHT22;17683;53.360;9.736;2023-02-21T09:57:14;9.30;99.90
30648;DHT22;17683;53.360;9.736;2023-02-21T09:59:40;9.30;99.90
30648;DHT22;17683;53.360;9.736;2023-02-21T10:02:17;9.30;99.90
30648;DHT22;17683;53.360;9.736;2023-02-21T10:10:44;9.40;99.90
30648;DHT22;17683;53.360;9.736;2023-02-21T10:16:07;9.50;99.90
30648;DHT22;17683;53.360;9.736;2023-02-21T10:21:47;9.60;99.90
30648;DHT22;17683;53.360;9.736;2023-02-21T10:24:20;9.60;99.90
30648;DHT22;17683;53.360;9.736;2023-02-21T10:26:57;9.60;99.90
30648;DHT22;17683;53.360;9.736;2023-02-21T10:29:28;9.60;99.90
30648;DHT22;17683;53.360;9.736;2023-02-21T10:31:59;9.60;99.90
30648;DHT22;17683;53.360;9.736;2023-02-21T10:34:28;9.70;99.90
30648;DHT22;17683;53.360;9.736;2023-02-21T10:36:59;9.70;99.90
30648;DHT22;17683;53.360;9.736;2023-02-21T10:39:51;9.80;99.90
30648;DHT22;17683;53.360;9.736;2023-02-21T10:42:28;9.80;99.90
30648;DHT22;17683;53.360;9.736;2023-02-21T10:44:56;9.80;99.90
30648;DHT22;17683;53.360;9.736;2023-02-21T10:47:28;9.80;99.90
30648;DHT22;17683;53.360;9.736;2023-02-21T10:50:05;9.80;99.90
30648;DHT22;17683;53.360;9.736;2023-02-21T10:52:37;9.90;99.90
30648;DHT22;17683;53.360;9.736;2023-02-21T10:55:21;9.90;99.90
30648;DHT22;17683;53.360;9.736;2023-02-21T10:57:57;9.90;99.90
30648;DHT22;17683;53.360;9.736;2023-02-21T11:00:43;9.90;99.90
30648;DHT22;17683;53.360;9.736;2023-02-21T11:05:51;10.00;99.90
30648;DHT22;17683;53.360;9.736;2023-02-21T11:08:40;10.00;99.90
30648;DHT22;17683;53.360;9.736;2023-02-21T11:11:07;10.00;99.90
30648;DHT22;17683;53.360;9.736;2023-02-21T11:13:33;10.00;99.90
30648;DHT22;17683;53.360;9.736;2023-02-21T11:16:20;10.10;99.90
30648;DHT22;17683;53.360;9.736;2023-02-21T11:19:11;10.00;99.90
30648;DHT22;17683;53.360;9.736;2023-02-21T11:21:37;10.00;99.90
30648;DHT22;17683;53.360;9.736;2023-02-21T11:24:06;10.00;99.90
30648;DHT22;17683;53.360;9.736;2023-02-21T11:26:47;10.00;99.90
30648;DHT22;17683;53.360;9.736;2023-02-21T11:29:20;10.00;99.90
30648;DHT22;17683;53.360;9.736;2023-02-21T11:31:48;9.90;99.90
30648;DHT22;17683;53.360;9.736;2023-02-21T11:34:15;10.00;99.90
30648;DHT22;17683;53.360;9.736;2023-02-21T11:36:45;9.90;99.90
30648;DHT22;17683;53.360;9.736;2023-02-21T11:39:19;9.90;99.90
30648;DHT22;17683;53.360;9.736;2023-02-21T11:41:51;9.90;99.90
30648;DHT22;17683;53.360;9.736;2023-02-21T11:44:40;10.00;99.90
30648;DHT22;17683;53.360;9.736;2023-02-21T11:47:31;10.00;99.90
30648;DHT22;17683;53.360;9.736;2023-02-21T11:53:12;10.10;99.90
30648;DHT22;17683;53.360;9.736;2023-02-21T11:55:41;10.10;99.90
30648;DHT22;17683;53.360;9.736;2023-02-21T11:58:41;10.10;99.90
30648;DHT22;17683;53.360;9.736;2023-02-21T12:01:14;10.10;99.90
30648;DHT22;17683;53.360;9.736;2023-02-21T12:04:03;10.00;99.90
30648;DHT22;17683;53.360;9.736;2023-02-21T12:20:27;10.10;99.90
30648;DHT22;17683;53.360;9.736;2023-02-21T12:23:10;10.10;99.90
30648;DHT22;17683;53.360;9.736;2023-02-21T12:28:46;10.10;99.90
30648;DHT22;17683;53.360;9.736;2023-02-21T12:43:07;10.30;99.90
30648;DHT22;17683;53.360;9.736;2023-02-21T12:50:53;10.30;99.90
30648;DHT22;17683;53.360;9.736;2023-02-21T12:53:25;10.30;99.90
30648;DHT22;17683;53.360;9.736;2023-02-21T12:56:04;10.20;99.90
30648;DHT22;17683;53.360;9.736;2023-02-21T12:58:36;10.20;99.90
30648;DHT22;17683;53.360;9.736;2023-02-21T13:01:11;10.20;99.90
30648;DHT22;17683;53.360;9.736;2023-02-21T13:06:34;10.20;99.90
30648;DHT22;17683;53.360;9.736;2023-02-21T13:12:05;10.10;99.90
30648;DHT22;17683;53.360;9.736;2023-02-21T13:14:42;10.20;99.90
30648;DHT22;17683;53.360;9.736;2023-02-21T13:17:11;10.20;99.90
30648;DHT22;17683;53.360;9.736;2023-02-21T13:28:41;10.20;99.90
30648;DHT22;17683;53.360;9.736;2023-02-21T13:31:20;10.20;99.90
30648;DHT22;17683;53.360;9.736;2023-02-21T13:33:56;10.10;99.90
30648;DHT22;17683;53.360;9.736;2023-02-21T13:36:28;10.10;99.90
30648;DHT22;17683;53.360;9.736;2023-02-21T13:39:15;10.10;99.90
30648;DHT22;17683;53.360;9.736;2023-02-21T13:41:59;10.10;99.90
30648;DHT22;17683;53.360;9.736;2023-02-21T13:44:32;10.10;99.90
30648;DHT22;17683;53.360;9.736;2023-02-21T13:47:09;10.10;99.90
30648;DHT22;17683;53.360;9.736;2023-02-21T13:49:38;10.10;99.90
30648;DHT22;17683;53.360;9.736;2023-02-21T13:57:51;10.30;99.90
30648;DHT22;17683;53.360;9.736;2023-02-21T14:10:47;10.30;99.90
30648;DHT22;17683;53.360;9.736;2023-02-21T14:13:37;10.30;99.90
30648;DHT22;17683;53.360;9.736;2023-02-21T14:18:46;10.30;99.90
30648;DHT22;17683;53.360;9.736;2023-02-21T14:21:44;10.30;99.90
30648;DHT22;17683;53.360;9.736;2023-02-21T14:37:29;10.10;99.90
30648;DHT22;17683;53.360;9.736;2023-02-21T14:40:20;10.10;99.90
30648;DHT22;17683;53.360;9.736;2023-02-21T14:48:32;10.10;99.90
30648;DHT22;17683;53.360;9.736;2023-02-21T14:51:37;10.00;99.90
30648;DHT22;17683;53.360;9.736;2023-02-21T14:54:36;10.00;99.90
30648;DHT22;17683;53.360;9.736;2023-02-21T14:57:19;10.00;99.90
30648;DHT22;17683;53.360;9.736;2023-02-21T15:02:29;10.00;99.90
30648;DHT22;17683;53.360;9.736;2023-02-21T15:05:16;9.90;99.90
30648;DHT22;17683;53.360;9.736;2023-02-21T15:12:57;9.90;99.90
30648;DHT22;17683;53.360;9.736;2023-02-21T15:15:30;9.90;99.90
30648;DHT22;17683;53.360;9.736;2023-02-21T15:18:36;9.90;99.90
30648;DHT22;17683;53.360;9.736;2023-02-21T15:23:38;9.90;99.90
30648;DHT22;17683;53.360;9.736;2023-02-21T15:28:43;9.80;99.90
30648;DHT22;17683;53.360;9.736;2023-02-21T15:31:11;9.80;99.90
30648;DHT22;17683;53.360;9.736;2023-02-21T15:33:39;9.80;99.90
30648;DHT22;17683;53.360;9.736;2023-02-21T15:36:17;9.80;99.90
30648;DHT22;17683;53.360;9.736;2023-02-21T15:38:58;9.80;99.90
30648;DHT22;17683;53.360;9.736;2023-02-21T15:41:39;9.80;99.90
30648;DHT22;17683;53.360;9.736;2023-02-21T15:46:47;9.80;99.90
30648;DHT22;17683;53.360;9.736;2023-02-21T15:49:35;9.80;99.90
30648;DHT22;17683;53.360;9.736;2023-02-21T15:52:02;9.80;99.90
30648;DHT22;17683;53.360;9.736;2023-02-21T15:54:33;9.80;99.90
30648;DHT22;17683;53.360;9.736;2023-02-21T15:57:11;9.80;99.90
30648;DHT22;17683;53.360;9.736;2023-02-21T15:59:41;9.80;99.90
30648;DHT22;17683;53.360;9.736;2023-02-21T16:04:39;9.70;99.90
30648;DHT22;17683;53.360;9.736;2023-02-21T16:07:12;9.70;99.90
30648;DHT22;17683;53.360;9.736;2023-02-21T16:09:44;9.70;99.90
30648;DHT22;17683;53.360;9.736;2023-02-21T16:15:07;9.70;99.90
30648;DHT22;17683;53.360;9.736;2023-02-21T16:17:36;9.70;99.90
30648;DHT22;17683;53.360;9.736;2023-02-21T16:20:15;9.60;99.90
30648;DHT22;17683;53.360;9.736;2023-02-21T16:22:46;9.60;99.90
30648;DHT22;17683;53.360;9.736;2023-02-21T16:25:18;9.70;99.90
30648;DHT22;17683;53.360;9.736;2023-02-21T16:27:49;9.70;99.90
30648;DHT22;17683;53.360;9.736;2023-02-21T16:30:24;9.70;99.90
30648;DHT22;17683;53.360;9.736;2023-02-21T16:32:52;9.60;99.90
30648;DHT22;17683;53.360;9.736;2023-02-21T16:35:21;9.60;99.90
30648;DHT22;17683;53.360;9.736;2023-02-21T16:37:53;9.60;99.90
30648;DHT22;17683;53.360;9.736;2023-02-21T16:40:22;9.60;99.90
30648;DHT22;17683;53.360;9.736;2023-02-21T16:42:50;9.60;99.90
30648;DHT22;17683;53.360;9.736;2023-02-21T16:45:16;9.60;99.90
30648;DHT22;17683;53.360;9.736;2023-02-21T16:47:42;9.50;99.90
30648;DHT22;17683;53.360;9.736;2023-02-21T16:50:21;9.50;99.90
30648;DHT22;17683;53.360;9.736;2023-02-21T16:52:47;9.50;99.90
30648;DHT22;17683;53.360;9.736;2023-02-21T16:55:14;9.50;99.90
30648;DHT22;17683;53.360;9.736;2023-02-21T16:57:41;9.50;99.90
30648;DHT22;17683;53.360;9.736;2023-02-21T17:00:07;9.50;99.90
30648;DHT22;17683;53.360;9.736;2023-02-21T17:02:33;9.50;99.90
30648;DHT22;17683;53.360;9.736;2023-02-21T17:04:59;9.50;99.90
30648;DHT22;17683;53.360;9.736;2023-02-21T17:07:24;9.40;99.90
30648;DHT22;17683;53.360;9.736;2023-02-21T17:09:50;9.40;99.90
30648;DHT22;17683;53.360;9.736;2023-02-21T17:12:16;9.40;99.90
30648;DHT22;17683;53.360;9.736;2023-02-21T17:14:42;9.40;99.90
30648;DHT22;17683;53.360;9.736;2023-02-21T17:17:09;9.40;99.90
30648;DHT22;17683;53.360;9.736;2023-02-21T17:19:34;9.40;99.90
30648;DHT22;17683;53.360;9.736;2023-02-21T17:22:00;9.40;99.90
30648;DHT22;17683;53.360;9.736;2023-02-21T17:24:26;9.40;99.90
30648;DHT22;17683;53.360;9.736;2023-02-21T17:26:52;9.40;99.90
30648;DHT22;17683;53.360;9.736;2023-02-21T17:29:18;9.40;99.90
30648;DHT22;17683;53.360;9.736;2023-02-21T17:31:44;9.40;99.90
30648;DHT22;17683;53.360;9.736;2023-02-21T17:34:12;9.40;99.90
30648;DHT22;17683;53.360;9.736;2023-02-21T17:36:38;9.30;99.90
30648;DHT22;17683;53.360;9.736;2023-02-21T17:39:04;9.40;99.90
30648;DHT22;17683;53.360;9.736;2023-02-21T17:41:31;9.40;99.90
30648;DHT22;17683;53.360;9.736;2023-02-21T17:43:57;9.40;99.90
30648;DHT22;17683;53.360;9.736;2023-02-21T17:46:22;9.30;99.90
30648;DHT22;17683;53.360;9.736;2023-02-21T17:48:48;9.30;99.90
30648;DHT22;17683;53.360;9.736;2023-02-21T17:51:32;9.30;99.90
30648;DHT22;17683;53.360;9.736;2023-02-21T17:53:58;9.30;99.90
30648;DHT22;17683;53.360;9.736;2023-02-21T17:56:24;9.30;99.90
30648;DHT22;17683;53.360;9.736;2023-02-21T17:58:50;9.30;99.90
30648;DHT22;17683;53.360;9.736;2023-02-21T18:01:17;9.30;99.90
30648;DHT22;17683;53.360;9.736;2023-02-21T18:03:45;9.30;99.90
30648;DHT22;17683;53.360;9.736;2023-02-21T18:06:12;9.30;99.90
30648;DHT22;17683;53.360;9.736;2023-02-21T18:08:38;9.30;99.90
30648;DHT22;17683;53.360;9.736;2023-02-21T18:11:08;9.30;99.90
30648;DHT22;17683;53.360;9.736;2023-02-21T18:13:34;9.30;99.90
30648;DHT22;17683;53.360;9.736;2023-02-21T18:16:03;9.30;99.90
30648;DHT22;17683;53.360;9.736;2023-02-21T18:18:30;9.20;99.90
30648;DHT22;17683;53.360;9.736;2023-02-21T18:20:56;9.20;99.90
30648;DHT22;17683;53.360;9.736;2023-02-21T18:23:31;9.30;99.90
30648;DHT22;17683;53.360;9.736;2023-02-21T18:25:57;9.30;99.90
30648;DHT22;17683;53.360;9.736;2023-02-21T18:28:24;9.30;99.90
30648;DHT22;17683;53.360;9.736;2023-02-21T18:30:53;9.30;99.90
30648;DHT22;17683;53.360;9.736;2023-02-21T18:33:20;9.20;99.90
30648;DHT22;17683;53.360;9.736;2023-02-21T18:35:47;9.20;99.90
30648;DHT22;17683;53.360;9.736;2023-02-21T18:38:13;9.30;99.90
30648;DHT22;17683;53.360;9.736;2023-02-21T18:40:41;9.20;99.90
30648;DHT22;17683;53.360;9.736;2023-02-21T18:45:41;9.20;99.90
30648;DHT22;17683;53.360;9.736;2023-02-21T18:48:06;9.20;99.90
30648;DHT22;17683;53.360;9.736;2023-02-21T18:50:32;9.20;99.90
30648;DHT22;17683;53.360;9.736;2023-02-21T18:52:59;9.20;99.90
30648;DHT22;17683;53.360;9.736;2023-02-21T18:55:26;9.20;99.90